sensor_id;sensor_type;location;lat;lon;timestamp;P1;durP1;ratioP1;P2;durP2;ratioP2
67065;SDS011;53978;43.846;25.952;2024-02-26T00:00:08;7.30;;;4.63;;
67065;SDS011;53978;43.846;25.952;2024-02-26T00:02:36;8.70;;;5.10;;
67065;SDS011;53978;43.846;25.952;2024-02-26T00:05:06;9.95;;;5.03;;
67065;SDS011;53978;43.846;25.952;2024-02-26T00:07:35;6.55;;;4.47;;
67065;SDS011;53978;43.846;25.952;2024-02-26T00:10:00;7.50;;;4.88;;
67065;SDS011;53978;43.846;25.952;2024-02-26T00:12:26;9.15;;;4.35;;
67065;SDS011;53978;43.846;25.952;2024-02-26T00:14:56;10.10;;;4.63;;
67065;SDS011;53978;43.846;25.952;2024-02-26T00:17:25;6.88;;;4.75;;
67065;SDS011;53978;43.846;25.952;2024-02-26T00:19:58;7.25;;;4.70;;
67065;SDS011;53978;43.846;25.952;2024-02-26T00:22:29;6.97;;;4.20;;
67065;SDS011;53978;43.846;25.952;2024-02-26T00:25:03;6.95;;;4.97;;
67065;SDS011;53978;43.846;25.952;2024-02-26T00:27:36;9.93;;;4.97;;
67065;SDS011;53978;43.846;25.952;2024-02-26T00:30:12;9.38;;;5.15;;
67065;SDS011;53978;43.846;25.952;2024-02-26T00:32:38;13.00;;;5.32;;
67065;SDS011;53978;43.846;25.952;2024-02-26T00:35:09;8.70;;;5.40;;
67065;SDS011;53978;43.846;25.952;2024-02-26T00:37:43;7.07;;;5.20;;
67065;SDS011;53978;43.846;25.952;2024-02-26T00:40:13;8.73;;;5.28;;
67065;SDS011;53978;43.846;25.952;2024-02-26T00:42:41;8.15;;;4.88;;
67065;SDS011;53978;43.846;25.952;2024-02-26T00:45:11;6.22;;;4.45;;
67065;SDS011;53978;43.846;25.952;2024-02-26T00:47:37;7.47;;;4.95;;
67065;SDS011;53978;43.846;25.952;2024-02-26T00:50:04;8.65;;;5.45;;
67065;SDS011;53978;43.846;25.952;2024-02-26T00:52:32;8.55;;;5.22;;
67065;SDS011;53978;43.846;25.952;2024-02-26T00:54:59;10.23;;;5.30;;
67065;SDS011;53978;43.846;25.952;2024-02-26T00:57:30;6.00;;;4.60;;
67065;SDS011;53978;43.846;25.952;2024-02-26T00:59:58;9.15;;;4.95;;
67065;SDS011;53978;43.846;25.952;2024-02-26T01:02:25;8.95;;;4.97;;
67065;SDS011;53978;43.846;25.952;2024-02-26T01:04:51;8.20;;;5.38;;
67065;SDS011;53978;43.846;25.952;2024-02-26T01:07:17;9.35;;;5.05;;
67065;SDS011;53978;43.846;25.952;2024-02-26T01:09:42;10.38;;;4.93;;
67065;SDS011;53978;43.846;25.952;2024-02-26T01:12:08;7.15;;;4.82;;
67065;SDS011;53978;43.846;25.952;2024-02-26T01:14:35;12.23;;;5.68;;
67065;SDS011;53978;43.846;25.952;2024-02-26T01:17:01;7.95;;;5.45;;
67065;SDS011;53978;43.846;25.952;2024-02-26T01:19:27;8.23;;;4.78;;
67065;SDS011;53978;43.846;25.952;2024-02-26T01:21:53;8.85;;;4.75;;
67065;SDS011;53978;43.846;25.952;2024-02-26T01:24:19;6.32;;;4.38;;
67065;SDS011;53978;43.846;25.952;2024-02-26T01:26:46;6.93;;;4.70;;
67065;SDS011;53978;43.846;25.952;2024-02-26T01:29:11;8.05;;;4.22;;
67065;SDS011;53978;43.846;25.952;2024-02-26T01:31:37;8.50;;;4.78;;
67065;SDS011;53978;43.846;25.952;2024-02-26T01:34:02;5.55;;;4.03;;
67065;SDS011;53978;43.846;25.952;2024-02-26T01:36:30;7.93;;;4.32;;
67065;SDS011;53978;43.846;25.952;2024-02-26T01:38:58;7.40;;;4.10;;
67065;SDS011;53978;43.846;25.952;2024-02-26T01:41:26;6.10;;;4.00;;
67065;SDS011;53978;43.846;25.952;2024-02-26T01:43:51;8.43;;;4.28;;
67065;SDS011;53978;43.846;25.952;2024-02-26T01:46:17;7.00;;;4.20;;
67065;SDS011;53978;43.846;25.952;2024-02-26T01:48:43;6.95;;;3.83;;
67065;SDS011;53978;43.846;25.952;2024-02-26T01:51:09;6.30;;;3.97;;
67065;SDS011;53978;43.846;25.952;2024-02-26T01:53:38;6.03;;;3.90;;
67065;SDS011;53978;43.846;25.952;2024-02-26T01:56:04;9.65;;;4.30;;
67065;SDS011;53978;43.846;25.952;2024-02-26T01:58:30;8.07;;;4.68;;
67065;SDS011;53978;43.846;25.952;2024-02-26T02:00:55;9.65;;;4.97;;
67065;SDS011;53978;43.846;25.952;2024-02-26T02:03:22;8.32;;;5.22;;
67065;SDS011;53978;43.846;25.952;2024-02-26T02:05:50;7.32;;;4.68;;
67065;SDS011;53978;43.846;25.952;2024-02-26T02:08:21;8.45;;;5.25;;
67065;SDS011;53978;43.846;25.952;2024-02-26T02:10:47;9.88;;;5.68;;
67065;SDS011;53978;43.846;25.952;2024-02-26T02:13:16;7.43;;;5.50;;
67065;SDS011;53978;43.846;25.952;2024-02-26T02:15:41;9.27;;;5.55;;
67065;SDS011;53978;43.846;25.952;2024-02-26T02:18:09;8.48;;;5.90;;
67065;SDS011;53978;43.846;25.952;2024-02-26T02:20:36;9.30;;;5.57;;
67065;SDS011;53978;43.846;25.952;2024-02-26T02:23:02;9.35;;;5.68;;
67065;SDS011;53978;43.846;25.952;2024-02-26T02:25:28;9.65;;;5.75;;
67065;SDS011;53978;43.846;25.952;2024-02-26T02:27:54;11.15;;;6.25;;
67065;SDS011;53978;43.846;25.952;2024-02-26T02:30:20;18.00;;;6.70;;
67065;SDS011;53978;43.846;25.952;2024-02-26T02:32:47;10.25;;;6.43;;
67065;SDS011;53978;43.846;25.952;2024-02-26T02:35:14;14.73;;;7.22;;
67065;SDS011;53978;43.846;25.952;2024-02-26T02:37:39;11.77;;;6.45;;
67065;SDS011;53978;43.846;25.952;2024-02-26T02:40:06;13.82;;;6.53;;
67065;SDS011;53978;43.846;25.952;2024-02-26T02:42:35;10.23;;;5.93;;
67065;SDS011;53978;43.846;25.952;2024-02-26T02:45:00;10.57;;;6.00;;
67065;SDS011;53978;43.846;25.952;2024-02-26T02:47:35;10.75;;;6.40;;
67065;SDS011;53978;43.846;25.952;2024-02-26T02:50:07;14.82;;;6.25;;
67065;SDS011;53978;43.846;25.952;2024-02-26T02:52:48;11.20;;;6.18;;
67065;SDS011;53978;43.846;25.952;2024-02-26T02:55:17;10.52;;;6.60;;
67065;SDS011;53978;43.846;25.952;2024-02-26T02:57:48;9.23;;;5.97;;
67065;SDS011;53978;43.846;25.952;2024-02-26T03:00:16;9.25;;;6.03;;
67065;SDS011;53978;43.846;25.952;2024-02-26T03:02:42;14.15;;;6.07;;
67065;SDS011;53978;43.846;25.952;2024-02-26T03:05:11;13.60;;;7.80;;
67065;SDS011;53978;43.846;25.952;2024-02-26T03:07:37;13.82;;;7.53;;
67065;SDS011;53978;43.846;25.952;2024-02-26T03:10:02;12.07;;;7.13;;
67065;SDS011;53978;43.846;25.952;2024-02-26T03:12:30;11.38;;;7.22;;
67065;SDS011;53978;43.846;25.952;2024-02-26T03:14:59;15.82;;;8.57;;
67065;SDS011;53978;43.846;25.952;2024-02-26T03:17:28;20.48;;;8.80;;
67065;SDS011;53978;43.846;25.952;2024-02-26T03:19:59;12.98;;;8.15;;
67065;SDS011;53978;43.846;25.952;2024-02-26T03:22:30;10.98;;;6.50;;
67065;SDS011;53978;43.846;25.952;2024-02-26T03:24:58;11.18;;;6.72;;
67065;SDS011;53978;43.846;25.952;2024-02-26T03:27:23;12.30;;;6.78;;
67065;SDS011;53978;43.846;25.952;2024-02-26T03:29:49;16.67;;;9.68;;
67065;SDS011;53978;43.846;25.952;2024-02-26T03:32:18;15.27;;;8.15;;
67065;SDS011;53978;43.846;25.952;2024-02-26T03:34:57;10.05;;;7.30;;
67065;SDS011;53978;43.846;25.952;2024-02-26T03:37:24;11.85;;;7.03;;
67065;SDS011;53978;43.846;25.952;2024-02-26T03:39:54;10.32;;;6.88;;
67065;SDS011;53978;43.846;25.952;2024-02-26T03:42:37;13.20;;;6.65;;
67065;SDS011;53978;43.846;25.952;2024-02-26T03:45:06;9.10;;;5.78;;
67065;SDS011;53978;43.846;25.952;2024-02-26T03:47:37;10.65;;;6.65;;
67065;SDS011;53978;43.846;25.952;2024-02-26T03:50:12;10.68;;;6.20;;
67065;SDS011;53978;43.846;25.952;2024-02-26T03:52:37;15.50;;;6.45;;
67065;SDS011;53978;43.846;25.952;2024-02-26T03:55:18;9.63;;;6.20;;
67065;SDS011;53978;43.846;25.952;2024-02-26T03:57:49;8.52;;;5.82;;
67065;SDS011;53978;43.846;25.952;2024-02-26T04:00:20;10.52;;;6.40;;
67065;SDS011;53978;43.846;25.952;2024-02-26T04:02:49;9.52;;;6.22;;
67065;SDS011;53978;43.846;25.952;2024-02-26T04:05:15;12.63;;;5.95;;
67065;SDS011;53978;43.846;25.952;2024-02-26T04:07:46;8.93;;;5.75;;
67065;SDS011;53978;43.846;25.952;2024-02-26T04:10:13;11.15;;;6.10;;
67065;SDS011;53978;43.846;25.952;2024-02-26T04:12:42;12.13;;;6.85;;
67065;SDS011;53978;43.846;25.952;2024-02-26T04:15:12;10.23;;;5.85;;
67065;SDS011;53978;43.846;25.952;2024-02-26T04:17:37;9.18;;;6.00;;
67065;SDS011;53978;43.846;25.952;2024-02-26T04:20:07;14.48;;;6.30;;
67065;SDS011;53978;43.846;25.952;2024-02-26T04:22:39;12.15;;;6.05;;
67065;SDS011;53978;43.846;25.952;2024-02-26T04:25:15;7.63;;;5.72;;
67065;SDS011;53978;43.846;25.952;2024-02-26T04:27:46;10.07;;;6.03;;
67065;SDS011;53978;43.846;25.952;2024-02-26T04:30:21;9.27;;;5.75;;
67065;SDS011;53978;43.846;25.952;2024-02-26T04:32:47;9.85;;;6.13;;
67065;SDS011;53978;43.846;25.952;2024-02-26T04:35:23;15.18;;;7.97;;
67065;SDS011;53978;43.846;25.952;2024-02-26T04:37:51;11.23;;;6.93;;
67065;SDS011;53978;43.846;25.952;2024-02-26T04:40:17;11.48;;;7.50;;
67065;SDS011;53978;43.846;25.952;2024-02-26T04:42:48;12.98;;;6.55;;
67065;SDS011;53978;43.846;25.952;2024-02-26T04:45:26;13.90;;;7.53;;
67065;SDS011;53978;43.846;25.952;2024-02-26T04:47:53;8.57;;;6.20;;
67065;SDS011;53978;43.846;25.952;2024-02-26T04:50:23;10.40;;;6.43;;
67065;SDS011;53978;43.846;25.952;2024-02-26T04:52:57;9.20;;;6.00;;
67065;SDS011;53978;43.846;25.952;2024-02-26T04:55:28;9.23;;;5.82;;
67065;SDS011;53978;43.846;25.952;2024-02-26T04:58:00;10.85;;;5.68;;
67065;SDS011;53978;43.846;25.952;2024-02-26T05:00:25;12.45;;;6.97;;
67065;SDS011;53978;43.846;25.952;2024-02-26T05:03:05;10.85;;;6.65;;
67065;SDS011;53978;43.846;25.952;2024-02-26T05:05:32;15.82;;;7.57;;
67065;SDS011;53978;43.846;25.952;2024-02-26T05:08:10;13.20;;;7.18;;
67065;SDS011;53978;43.846;25.952;2024-02-26T05:10:37;17.83;;;9.50;;
67065;SDS011;53978;43.846;25.952;2024-02-26T05:13:09;15.18;;;8.45;;
67065;SDS011;53978;43.846;25.952;2024-02-26T05:15:39;13.63;;;7.00;;
67065;SDS011;53978;43.846;25.952;2024-02-26T05:21:06;10.60;;;6.90;;
67065;SDS011;53978;43.846;25.952;2024-02-26T05:23:51;12.43;;;6.53;;
67065;SDS011;53978;43.846;25.952;2024-02-26T05:26:23;10.45;;;6.63;;
67065;SDS011;53978;43.846;25.952;2024-02-26T05:29:01;10.45;;;6.88;;
67065;SDS011;53978;43.846;25.952;2024-02-26T05:31:26;12.45;;;6.20;;
67065;SDS011;53978;43.846;25.952;2024-02-26T05:33:57;12.25;;;6.05;;
67065;SDS011;53978;43.846;25.952;2024-02-26T05:36:28;8.57;;;6.05;;
67065;SDS011;53978;43.846;25.952;2024-02-26T05:38:58;12.52;;;5.93;;
67065;SDS011;53978;43.846;25.952;2024-02-26T05:41:31;11.77;;;5.88;;
67065;SDS011;53978;43.846;25.952;2024-02-26T05:43:58;12.43;;;5.82;;
67065;SDS011;53978;43.846;25.952;2024-02-26T05:46:32;10.48;;;5.93;;
67065;SDS011;53978;43.846;25.952;2024-02-26T05:49:10;13.23;;;6.22;;
67065;SDS011;53978;43.846;25.952;2024-02-26T05:51:43;11.75;;;5.80;;
67065;SDS011;53978;43.846;25.952;2024-02-26T05:54:17;10.35;;;6.35;;
67065;SDS011;53978;43.846;25.952;2024-02-26T05:56:47;10.68;;;6.43;;
67065;SDS011;53978;43.846;25.952;2024-02-26T06:02:21;12.85;;;6.30;;
67065;SDS011;53978;43.846;25.952;2024-02-26T06:04:55;8.68;;;5.88;;
67065;SDS011;53978;43.846;25.952;2024-02-26T06:07:32;12.65;;;6.70;;
67065;SDS011;53978;43.846;25.952;2024-02-26T06:10:04;11.05;;;6.20;;
67065;SDS011;53978;43.846;25.952;2024-02-26T06:15:19;11.82;;;5.85;;
67065;SDS011;53978;43.846;25.952;2024-02-26T06:17:45;11.25;;;6.25;;
67065;SDS011;53978;43.846;25.952;2024-02-26T06:20:13;8.88;;;6.35;;
67065;SDS011;53978;43.846;25.952;2024-02-26T06:22:41;12.32;;;6.90;;
67065;SDS011;53978;43.846;25.952;2024-02-26T06:25:17;15.35;;;8.13;;
67065;SDS011;53978;43.846;25.952;2024-02-26T06:27:43;11.45;;;7.15;;
67065;SDS011;53978;43.846;25.952;2024-02-26T06:30:12;11.70;;;6.88;;
67065;SDS011;53978;43.846;25.952;2024-02-26T06:32:44;11.38;;;6.75;;
67065;SDS011;53978;43.846;25.952;2024-02-26T06:35:09;13.10;;;7.47;;
67065;SDS011;53978;43.846;25.952;2024-02-26T06:37:50;15.00;;;7.55;;
67065;SDS011;53978;43.846;25.952;2024-02-26T06:40:57;14.15;;;7.50;;
67065;SDS011;53978;43.846;25.952;2024-02-26T06:43:28;17.73;;;8.18;;
67065;SDS011;53978;43.846;25.952;2024-02-26T06:45:57;13.50;;;8.05;;
67065;SDS011;53978;43.846;25.952;2024-02-26T06:48:24;14.07;;;8.05;;
67065;SDS011;53978;43.846;25.952;2024-02-26T06:50:51;16.05;;;7.78;;
67065;SDS011;53978;43.846;25.952;2024-02-26T06:53:20;12.18;;;7.40;;
67065;SDS011;53978;43.846;25.952;2024-02-26T06:55:52;12.68;;;8.05;;
67065;SDS011;53978;43.846;25.952;2024-02-26T06:58:17;13.68;;;7.65;;
67065;SDS011;53978;43.846;25.952;2024-02-26T07:00:46;15.40;;;8.38;;
67065;SDS011;53978;43.846;25.952;2024-02-26T07:03:16;13.05;;;8.05;;
67065;SDS011;53978;43.846;25.952;2024-02-26T07:05:42;13.52;;;8.25;;
67065;SDS011;53978;43.846;25.952;2024-02-26T07:08:17;16.27;;;7.90;;
67065;SDS011;53978;43.846;25.952;2024-02-26T07:10:46;14.65;;;7.88;;
67065;SDS011;53978;43.846;25.952;2024-02-26T07:13:12;18.67;;;8.32;;
67065;SDS011;53978;43.846;25.952;2024-02-26T07:15:41;15.20;;;8.18;;
67065;SDS011;53978;43.846;25.952;2024-02-26T07:18:09;17.08;;;9.32;;
67065;SDS011;53978;43.846;25.952;2024-02-26T07:20:49;15.70;;;8.43;;
67065;SDS011;53978;43.846;25.952;2024-02-26T07:23:20;19.50;;;8.27;;
67065;SDS011;53978;43.846;25.952;2024-02-26T07:25:55;10.82;;;7.90;;
67065;SDS011;53978;43.846;25.952;2024-02-26T07:28:30;15.05;;;7.82;;
67065;SDS011;53978;43.846;25.952;2024-02-26T07:31:12;16.80;;;7.25;;
67065;SDS011;53978;43.846;25.952;2024-02-26T07:33:45;20.80;;;7.15;;
67065;SDS011;53978;43.846;25.952;2024-02-26T07:36:18;11.82;;;7.10;;
67065;SDS011;53978;43.846;25.952;2024-02-26T07:38:43;13.68;;;8.20;;
67065;SDS011;53978;43.846;25.952;2024-02-26T07:41:21;20.33;;;8.88;;
67065;SDS011;53978;43.846;25.952;2024-02-26T07:43:50;15.68;;;8.50;;
67065;SDS011;53978;43.846;25.952;2024-02-26T07:46:20;12.57;;;8.48;;
67065;SDS011;53978;43.846;25.952;2024-02-26T07:48:53;14.35;;;8.75;;
67065;SDS011;53978;43.846;25.952;2024-02-26T07:51:21;15.65;;;9.10;;
67065;SDS011;53978;43.846;25.952;2024-02-26T07:53:50;15.43;;;8.75;;
67065;SDS011;53978;43.846;25.952;2024-02-26T07:56:20;15.05;;;8.63;;
67065;SDS011;53978;43.846;25.952;2024-02-26T07:58:55;18.83;;;8.95;;
67065;SDS011;53978;43.846;25.952;2024-02-26T08:01:28;22.23;;;8.57;;
67065;SDS011;53978;43.846;25.952;2024-02-26T08:03:59;25.58;;;10.00;;
67065;SDS011;53978;43.846;25.952;2024-02-26T08:06:28;17.65;;;8.50;;
67065;SDS011;53978;43.846;25.952;2024-02-26T08:08:56;17.75;;;8.63;;
67065;SDS011;53978;43.846;25.952;2024-02-26T08:11:28;14.55;;;8.75;;
67065;SDS011;53978;43.846;25.952;2024-02-26T08:13:54;18.92;;;8.80;;
67065;SDS011;53978;43.846;25.952;2024-02-26T08:16:19;22.35;;;9.57;;
67065;SDS011;53978;43.846;25.952;2024-02-26T08:18:49;15.35;;;9.20;;
67065;SDS011;53978;43.846;25.952;2024-02-26T08:21:15;20.75;;;8.68;;
67065;SDS011;53978;43.846;25.952;2024-02-26T08:23:53;21.08;;;9.00;;
67065;SDS011;53978;43.846;25.952;2024-02-26T08:26:20;17.60;;;8.60;;
67065;SDS011;53978;43.846;25.952;2024-02-26T08:28:47;19.80;;;8.32;;
67065;SDS011;53978;43.846;25.952;2024-02-26T08:31:16;21.45;;;8.63;;
67065;SDS011;53978;43.846;25.952;2024-02-26T08:33:42;20.88;;;8.18;;
67065;SDS011;53978;43.846;25.952;2024-02-26T08:36:11;18.45;;;9.20;;
67065;SDS011;53978;43.846;25.952;2024-02-26T08:38:36;13.80;;;7.20;;
67065;SDS011;53978;43.846;25.952;2024-02-26T08:41:02;12.82;;;7.68;;
67065;SDS011;53978;43.846;25.952;2024-02-26T08:43:28;14.55;;;7.55;;
67065;SDS011;53978;43.846;25.952;2024-02-26T08:45:53;20.48;;;8.68;;
67065;SDS011;53978;43.846;25.952;2024-02-26T08:48:21;21.35;;;7.90;;
67065;SDS011;53978;43.846;25.952;2024-02-26T08:50:48;13.55;;;7.38;;
67065;SDS011;53978;43.846;25.952;2024-02-26T08:53:14;10.15;;;6.72;;
67065;SDS011;53978;43.846;25.952;2024-02-26T08:55:39;10.98;;;6.68;;
67065;SDS011;53978;43.846;25.952;2024-02-26T08:58:07;14.88;;;6.85;;
67065;SDS011;53978;43.846;25.952;2024-02-26T09:00:33;12.25;;;7.00;;
67065;SDS011;53978;43.846;25.952;2024-02-26T09:02:58;15.02;;;6.82;;
67065;SDS011;53978;43.846;25.952;2024-02-26T09:05:24;11.85;;;6.72;;
67065;SDS011;53978;43.846;25.952;2024-02-26T09:07:52;15.95;;;6.93;;
67065;SDS011;53978;43.846;25.952;2024-02-26T09:10:20;13.40;;;7.28;;
67065;SDS011;53978;43.846;25.952;2024-02-26T09:12:48;11.50;;;7.22;;
67065;SDS011;53978;43.846;25.952;2024-02-26T09:15:14;10.73;;;6.75;;
67065;SDS011;53978;43.846;25.952;2024-02-26T09:17:39;10.73;;;6.07;;
67065;SDS011;53978;43.846;25.952;2024-02-26T09:20:05;11.13;;;6.13;;
67065;SDS011;53978;43.846;25.952;2024-02-26T09:22:34;11.27;;;6.07;;
67065;SDS011;53978;43.846;25.952;2024-02-26T09:25:04;19.10;;;6.28;;
67065;SDS011;53978;43.846;25.952;2024-02-26T09:27:32;11.90;;;6.47;;
67065;SDS011;53978;43.846;25.952;2024-02-26T09:29:58;11.57;;;6.38;;
67065;SDS011;53978;43.846;25.952;2024-02-26T09:32:26;11.88;;;5.75;;
67065;SDS011;53978;43.846;25.952;2024-02-26T09:35:02;12.43;;;6.18;;
67065;SDS011;53978;43.846;25.952;2024-02-26T09:40:24;11.45;;;6.15;;
67065;SDS011;53978;43.846;25.952;2024-02-26T09:43:00;8.57;;;5.68;;
67065;SDS011;53978;43.846;25.952;2024-02-26T09:45:28;16.00;;;5.63;;
67065;SDS011;53978;43.846;25.952;2024-02-26T09:48:30;14.30;;;6.10;;
67065;SDS011;53978;43.846;25.952;2024-02-26T09:50:57;13.82;;;6.68;;
67065;SDS011;53978;43.846;25.952;2024-02-26T09:53:22;10.85;;;6.38;;
67065;SDS011;53978;43.846;25.952;2024-02-26T09:55:52;10.27;;;5.90;;
67065;SDS011;53978;43.846;25.952;2024-02-26T09:58:28;9.25;;;5.65;;
67065;SDS011;53978;43.846;25.952;2024-02-26T10:00:56;7.82;;;5.57;;
67065;SDS011;53978;43.846;25.952;2024-02-26T10:03:25;10.85;;;5.60;;
67065;SDS011;53978;43.846;25.952;2024-02-26T10:05:57;8.38;;;5.75;;
67065;SDS011;53978;43.846;25.952;2024-02-26T10:08:24;8.93;;;6.35;;
67065;SDS011;53978;43.846;25.952;2024-02-26T10:10:55;11.32;;;6.18;;
67065;SDS011;53978;43.846;25.952;2024-02-26T10:13:30;12.55;;;6.47;;
67065;SDS011;53978;43.846;25.952;2024-02-26T10:15:57;9.18;;;6.25;;
67065;SDS011;53978;43.846;25.952;2024-02-26T10:18:23;9.77;;;5.60;;
67065;SDS011;53978;43.846;25.952;2024-02-26T10:21:04;10.82;;;6.35;;
67065;SDS011;53978;43.846;25.952;2024-02-26T10:23:41;11.60;;;6.57;;
67065;SDS011;53978;43.846;25.952;2024-02-26T10:26:11;11.73;;;6.38;;
67065;SDS011;53978;43.846;25.952;2024-02-26T10:28:37;12.40;;;7.30;;
67065;SDS011;53978;43.846;25.952;2024-02-26T10:31:09;11.07;;;6.88;;
67065;SDS011;53978;43.846;25.952;2024-02-26T10:33:38;10.30;;;6.53;;
67065;SDS011;53978;43.846;25.952;2024-02-26T10:36:06;15.77;;;7.13;;
67065;SDS011;53978;43.846;25.952;2024-02-26T10:38:43;12.13;;;7.53;;
67065;SDS011;53978;43.846;25.952;2024-02-26T10:41:12;9.15;;;6.18;;
67065;SDS011;53978;43.846;25.952;2024-02-26T10:43:43;13.32;;;7.53;;
67065;SDS011;53978;43.846;25.952;2024-02-26T10:46:14;12.45;;;7.10;;
67065;SDS011;53978;43.846;25.952;2024-02-26T10:48:49;11.48;;;6.78;;
67065;SDS011;53978;43.846;25.952;2024-02-26T10:51:34;15.43;;;7.22;;
67065;SDS011;53978;43.846;25.952;2024-02-26T10:54:05;11.15;;;6.20;;
67065;SDS011;53978;43.846;25.952;2024-02-26T10:56:35;9.27;;;6.28;;
67065;SDS011;53978;43.846;25.952;2024-02-26T10:59:08;10.13;;;6.15;;
67065;SDS011;53978;43.846;25.952;2024-02-26T11:01:43;10.60;;;6.72;;
67065;SDS011;53978;43.846;25.952;2024-02-26T11:04:12;11.10;;;6.90;;
67065;SDS011;53978;43.846;25.952;2024-02-26T11:06:47;13.73;;;7.72;;
67065;SDS011;53978;43.846;25.952;2024-02-26T11:09:14;13.47;;;7.70;;
67065;SDS011;53978;43.846;25.952;2024-02-26T11:11:40;13.32;;;7.38;;
67065;SDS011;53978;43.846;25.952;2024-02-26T11:14:09;14.55;;;6.63;;
67065;SDS011;53978;43.846;25.952;2024-02-26T11:16:38;14.75;;;6.30;;
67065;SDS011;53978;43.846;25.952;2024-02-26T11:19:08;11.20;;;7.20;;
67065;SDS011;53978;43.846;25.952;2024-02-26T11:21:39;10.75;;;6.28;;
67065;SDS011;53978;43.846;25.952;2024-02-26T11:24:12;12.02;;;6.65;;
67065;SDS011;53978;43.846;25.952;2024-02-26T11:26:51;17.30;;;6.90;;
67065;SDS011;53978;43.846;25.952;2024-02-26T11:29:27;13.38;;;6.22;;
67065;SDS011;53978;43.846;25.952;2024-02-26T11:32:00;11.60;;;5.70;;
67065;SDS011;53978;43.846;25.952;2024-02-26T11:34:32;13.93;;;6.93;;
67065;SDS011;53978;43.846;25.952;2024-02-26T11:37:00;10.27;;;6.35;;
67065;SDS011;53978;43.846;25.952;2024-02-26T11:39:45;10.50;;;5.93;;
67065;SDS011;53978;43.846;25.952;2024-02-26T11:42:15;15.43;;;6.18;;
67065;SDS011;53978;43.846;25.952;2024-02-26T11:44:43;9.60;;;6.10;;
67065;SDS011;53978;43.846;25.952;2024-02-26T11:47:20;11.38;;;5.60;;
67065;SDS011;53978;43.846;25.952;2024-02-26T11:49:46;11.13;;;5.75;;
67065;SDS011;53978;43.846;25.952;2024-02-26T11:52:15;10.43;;;6.00;;
67065;SDS011;53978;43.846;25.952;2024-02-26T11:54:53;10.45;;;6.03;;
67065;SDS011;53978;43.846;25.952;2024-02-26T11:57:26;8.85;;;6.10;;
67065;SDS011;53978;43.846;25.952;2024-02-26T12:02:41;10.98;;;5.72;;
67065;SDS011;53978;43.846;25.952;2024-02-26T12:05:17;13.38;;;5.72;;
67065;SDS011;53978;43.846;25.952;2024-02-26T12:07:50;11.13;;;6.30;;
67065;SDS011;53978;43.846;25.952;2024-02-26T12:10:27;14.45;;;7.03;;
67065;SDS011;53978;43.846;25.952;2024-02-26T12:13:06;10.80;;;5.97;;
67065;SDS011;53978;43.846;25.952;2024-02-26T12:15:38;14.02;;;5.82;;
67065;SDS011;53978;43.846;25.952;2024-02-26T12:18:08;11.35;;;5.55;;
67065;SDS011;53978;43.846;25.952;2024-02-26T12:20:37;10.70;;;5.85;;
67065;SDS011;53978;43.846;25.952;2024-02-26T12:23:03;9.73;;;5.65;;
67065;SDS011;53978;43.846;25.952;2024-02-26T12:25:29;11.95;;;5.90;;
67065;SDS011;53978;43.846;25.952;2024-02-26T12:27:56;12.32;;;5.80;;
67065;SDS011;53978;43.846;25.952;2024-02-26T12:30:28;9.35;;;5.20;;
67065;SDS011;53978;43.846;25.952;2024-02-26T12:32:57;9.75;;;5.47;;
67065;SDS011;53978;43.846;25.952;2024-02-26T12:35:23;9.50;;;5.93;;
67065;SDS011;53978;43.846;25.952;2024-02-26T12:37:52;9.68;;;5.75;;
67065;SDS011;53978;43.846;25.952;2024-02-26T12:40:20;7.88;;;5.85;;
67065;SDS011;53978;43.846;25.952;2024-02-26T12:42:46;11.98;;;6.95;;
67065;SDS011;53978;43.846;25.952;2024-02-26T12:45:12;11.77;;;6.10;;
67065;SDS011;53978;43.846;25.952;2024-02-26T12:47:38;11.45;;;6.45;;
67065;SDS011;53978;43.846;25.952;2024-02-26T12:50:04;10.57;;;7.47;;
67065;SDS011;53978;43.846;25.952;2024-02-26T12:52:36;11.75;;;6.10;;
67065;SDS011;53978;43.846;25.952;2024-02-26T12:55:05;7.53;;;5.93;;
67065;SDS011;53978;43.846;25.952;2024-02-26T12:57:34;8.73;;;5.32;;
67065;SDS011;53978;43.846;25.952;2024-02-26T13:00:01;10.63;;;5.78;;
67065;SDS011;53978;43.846;25.952;2024-02-26T13:02:30;15.18;;;5.45;;
67065;SDS011;53978;43.846;25.952;2024-02-26T13:04:59;8.80;;;5.43;;
67065;SDS011;53978;43.846;25.952;2024-02-26T13:07:26;10.18;;;5.65;;
67065;SDS011;53978;43.846;25.952;2024-02-26T13:09:52;7.25;;;5.20;;
67065;SDS011;53978;43.846;25.952;2024-02-26T13:12:20;6.72;;;4.43;;
67065;SDS011;53978;43.846;25.952;2024-02-26T13:14:53;6.22;;;4.88;;
67065;SDS011;53978;43.846;25.952;2024-02-26T13:17:26;7.60;;;5.07;;
67065;SDS011;53978;43.846;25.952;2024-02-26T13:19:53;13.73;;;5.43;;
67065;SDS011;53978;43.846;25.952;2024-02-26T13:22:21;6.70;;;4.70;;
67065;SDS011;53978;43.846;25.952;2024-02-26T13:24:57;13.88;;;5.18;;
67065;SDS011;53978;43.846;25.952;2024-02-26T13:27:24;7.30;;;4.78;;
67065;SDS011;53978;43.846;25.952;2024-02-26T13:30:11;7.93;;;4.90;;
67065;SDS011;53978;43.846;25.952;2024-02-26T13:32:38;7.63;;;5.25;;
67065;SDS011;53978;43.846;25.952;2024-02-26T13:35:05;7.68;;;4.90;;
67065;SDS011;53978;43.846;25.952;2024-02-26T13:37:31;10.75;;;4.80;;
67065;SDS011;53978;43.846;25.952;2024-02-26T13:40:00;7.75;;;5.13;;
67065;SDS011;53978;43.846;25.952;2024-02-26T13:42:30;14.57;;;5.10;;
67065;SDS011;53978;43.846;25.952;2024-02-26T13:44:57;9.75;;;5.30;;
67065;SDS011;53978;43.846;25.952;2024-02-26T13:47:23;13.32;;;5.90;;
67065;SDS011;53978;43.846;25.952;2024-02-26T13:49:48;9.00;;;5.47;;
67065;SDS011;53978;43.846;25.952;2024-02-26T13:52:14;7.57;;;4.78;;
67065;SDS011;53978;43.846;25.952;2024-02-26T13:54:39;8.27;;;4.95;;
67065;SDS011;53978;43.846;25.952;2024-02-26T13:57:05;8.45;;;4.47;;
67065;SDS011;53978;43.846;25.952;2024-02-26T13:59:31;7.63;;;4.22;;
67065;SDS011;53978;43.846;25.952;2024-02-26T14:01:56;7.72;;;4.80;;
67065;SDS011;53978;43.846;25.952;2024-02-26T14:04:22;6.47;;;4.22;;
67065;SDS011;53978;43.846;25.952;2024-02-26T14:06:47;7.95;;;4.53;;
67065;SDS011;53978;43.846;25.952;2024-02-26T14:09:14;10.65;;;4.22;;
67065;SDS011;53978;43.846;25.952;2024-02-26T14:11:45;7.22;;;4.20;;
67065;SDS011;53978;43.846;25.952;2024-02-26T14:14:13;5.97;;;3.97;;
67065;SDS011;53978;43.846;25.952;2024-02-26T14:16:40;9.50;;;4.47;;
67065;SDS011;53978;43.846;25.952;2024-02-26T14:19:06;9.52;;;4.78;;
67065;SDS011;53978;43.846;25.952;2024-02-26T14:21:31;9.40;;;4.60;;
67065;SDS011;53978;43.846;25.952;2024-02-26T14:23:57;6.07;;;4.22;;
67065;SDS011;53978;43.846;25.952;2024-02-26T14:26:28;5.80;;;3.70;;
67065;SDS011;53978;43.846;25.952;2024-02-26T14:28:56;6.72;;;3.72;;
67065;SDS011;53978;43.846;25.952;2024-02-26T14:31:22;5.55;;;3.88;;
67065;SDS011;53978;43.846;25.952;2024-02-26T14:33:50;7.90;;;4.38;;
67065;SDS011;53978;43.846;25.952;2024-02-26T14:36:18;8.07;;;4.05;;
67065;SDS011;53978;43.846;25.952;2024-02-26T14:38:54;7.97;;;4.20;;
67065;SDS011;53978;43.846;25.952;2024-02-26T14:41:22;15.18;;;4.45;;
67065;SDS011;53978;43.846;25.952;2024-02-26T14:43:50;6.80;;;4.00;;
67065;SDS011;53978;43.846;25.952;2024-02-26T14:46:16;6.15;;;3.95;;
67065;SDS011;53978;43.846;25.952;2024-02-26T14:48:47;10.85;;;4.00;;
67065;SDS011;53978;43.846;25.952;2024-02-26T14:51:13;7.78;;;3.97;;
67065;SDS011;53978;43.846;25.952;2024-02-26T14:53:41;7.18;;;3.90;;